Terminal Aerodrome Forecast
Issued by NWS

Home | Current Version | Previous Version | Text Only | Print | Product List | Glossary On
Versions: 1 2 3 4 5 6 7 8 9 10 11 12 13
000
FTUS45 KABQ 042334
TAFLVS
TAF
KLVS 042334Z 0500/0524 27013KT P6SM SCT100
     FM050130 23009KT P6SM SCT110
     FM050600 35007KT P6SM SKC
     FM052000 21012G19KT P6SM SCT100
      AMD NOT SKED=

USA.gov is the U.S. government's official web portal to all federal, state and local government web resources and services.